Time;durP1;ratioP1;P1;durP2;ratioP2;P2;SDS_P1;SDS_P2;PMS_P1;PMS_P2;Temp;Humidity;BMP_temperature;BMP_pressure;BME280_temperature;BME280_humidity;BME280_pressure;Samples;Min_cycle;Max_cycle;Signal;HPM_P1;HPM_P2
2022/06/01 00:00:54;;;;;;;3.93;3.63;;;11.30;99.90;;;;;;5054649;28;20436;-60
2022/06/01 00:03:20;;;;;;;5.30;4.10;;;11.30;99.90;;;;;;5063287;28;20191;-59
2022/06/01 00:05:46;;;;;;;6.27;4.20;;;11.20;99.90;;;;;;5044321;28;20456;-60
2022/06/01 00:08:11;;;;;;;5.57;3.77;;;11.20;99.90;;;;;;5045239;28;20788;-58
2022/06/01 00:10:37;;;;;;;5.17;4.67;;;11.10;99.90;;;;;;5045303;28;20184;-60
2022/06/01 00:13:03;;;;;;;5.60;3.93;;;11.10;99.90;;;;;;5044690;28;20195;-60
2022/06/01 00:15:30;;;;;;;6.37;4.10;;;11.10;99.90;;;;;;5041440;28;21104;-60
2022/06/01 00:17:58;;;;;;;9.87;5.20;;;11.10;99.90;;;;;;5045446;28;20258;-60
2022/06/01 00:20:25;;;;;;;16.53;6.40;;;11.10;99.90;;;;;;5045964;28;20426;-59
2022/06/01 00:22:51;;;;;;;19.93;5.90;;;11.00;99.90;;;;;;5042206;28;20446;-61
2022/06/01 00:25:17;;;;;;;19.33;6.73;;;11.00;99.90;;;;;;5043687;28;20470;-59
2022/06/01 00:27:43;;;;;;;12.50;6.40;;;11.00;99.90;;;;;;5042863;28;20206;-59
2022/06/01 00:30:12;;;;;;;18.67;6.03;;;10.90;99.90;;;;;;5044425;28;20457;-60
2022/06/01 00:32:38;;;;;;;8.10;6.30;;;10.90;99.90;;;;;;5041760;28;20210;-58
2022/06/01 00:35:06;;;;;;;7.40;5.87;;;10.90;99.90;;;;;;5048829;28;20433;-59
2022/06/01 00:37:32;;;;;;;29.90;6.60;;;10.90;99.90;;;;;;5047320;28;20167;-60
2022/06/01 00:39:58;;;;;;;9.57;6.23;;;11.00;99.90;;;;;;5043951;28;20938;-59
2022/06/01 00:42:27;;;;;;;38.50;6.80;;;10.90;99.90;;;;;;5040518;28;20549;-59
2022/06/01 00:44:53;;;;;;;22.90;6.87;;;10.90;99.90;;;;;;5039789;28;20196;-59
2022/06/01 00:47:20;;;;;;;18.03;5.93;;;10.90;99.90;;;;;;5042293;28;20429;-59
2022/06/01 00:49:59;;;;;;;32.07;7.53;;;10.90;99.90;;;;;;5043435;28;20504;-58
2022/06/01 00:52:36;;;;;;;24.13;6.23;;;10.90;99.90;;;;;;5042414;28;20457;-60
2022/06/01 00:55:10;;;;;;;85.37;8.60;;;10.90;99.90;;;;;;5044515;28;20428;-59
2022/06/01 00:57:36;;;;;;;14.93;6.90;;;10.90;99.90;;;;;;5050429;28;20469;-59
2022/06/01 01:00:07;;;;;;;11.33;7.03;;;10.90;99.90;;;;;;5053074;28;20432;-59
2022/06/01 01:02:33;;;;;;;32.27;7.17;;;10.90;99.90;;;;;;5047581;28;20477;-59
2022/06/01 01:05:00;;;;;;;22.53;6.23;;;11.00;99.90;;;;;;5041868;28;20454;-60
2022/06/01 01:07:26;;;;;;;26.80;7.47;;;10.90;99.90;;;;;;5043619;28;20207;-60
2022/06/01 01:09:52;;;;;;;16.43;7.23;;;11.00;99.90;;;;;;5044248;28;20448;-59
2022/06/01 01:12:19;;;;;;;12.07;6.93;;;11.00;99.90;;;;;;5043343;28;20465;-60
2022/06/01 01:14:45;;;;;;;19.73;6.90;;;11.00;99.90;;;;;;5052704;28;20472;-60
2022/06/01 01:17:12;;;;;;;9.00;6.77;;;11.00;99.90;;;;;;5046962;28;20437;-59
2022/06/01 01:19:43;;;;;;;9.23;6.73;;;11.10;99.90;;;;;;5054315;28;20456;-59
2022/06/01 01:22:37;;;;;;;10.07;6.77;;;11.10;99.90;;;;;;5060304;28;20444;-60
2022/06/01 01:25:17;;;;;;;12.07;7.40;;;11.10;99.90;;;;;;5046076;28;20425;-59
2022/06/01 01:27:45;;;;;;;14.77;7.00;;;11.10;99.90;;;;;;5048899;28;20430;-60
2022/06/01 01:30:37;;;;;;;29.53;7.63;;;11.10;99.90;;;;;;5052512;28;20515;-61
2022/06/01 01:33:09;;;;;;;22.47;7.70;;;11.10;99.90;;;;;;5039070;28;20484;-59
2022/06/01 01:35:35;;;;;;;28.77;10.73;;;11.20;99.90;;;;;;5045456;28;20457;-59
2022/06/01 01:38:06;;;;;;;27.93;9.20;;;11.10;99.90;;;;;;5065721;28;20400;-60
2022/06/01 01:40:33;;;;;;;23.70;9.27;;;11.10;99.90;;;;;;5056116;28;20433;-59
2022/06/01 01:43:00;;;;;;;29.87;11.10;;;11.10;99.90;;;;;;5046143;28;20866;-60
2022/06/01 01:45:31;;;;;;;30.23;9.33;;;11.10;99.90;;;;;;5040479;28;20457;-60
2022/06/01 01:47:57;;;;;;;12.17;7.80;;;11.10;99.90;;;;;;5043008;28;20444;-60
2022/06/01 01:50:24;;;;;;;15.03;7.87;;;11.10;99.90;;;;;;5048252;28;20421;-59
2022/06/01 01:52:51;;;;;;;16.33;7.90;;;11.10;99.90;;;;;;5047216;28;20585;-60
2022/06/01 01:55:53;;;;;;;19.00;7.97;;;11.10;99.90;;;;;;5049852;28;20502;-59
2022/06/01 01:58:37;;;;;;;34.33;9.77;;;11.10;99.90;;;;;;5034483;28;20867;-60
2022/06/01 02:01:14;;;;;;;18.53;9.30;;;11.10;99.90;;;;;;5031865;28;20418;-59
2022/06/01 02:03:59;;;;;;;28.53;8.87;;;11.10;99.90;;;;;;5047751;28;20453;-60
2022/06/01 02:06:32;;;;;;;19.60;8.97;;;11.00;99.90;;;;;;5042425;28;20989;-60
2022/06/01 02:09:05;;;;;;;45.70;10.47;;;11.00;99.90;;;;;;5049245;28;20422;-59
2022/06/01 02:14:50;;;;;;;40.63;11.30;;;11.00;99.90;;;;;;5049264;28;20460;-59
2022/06/01 02:17:28;;;;;;;30.23;11.37;;;11.00;99.90;;;;;;5046622;28;20840;-60
2022/06/01 02:20:04;;;;;;;22.40;11.10;;;11.00;99.90;;;;;;5043302;28;20452;-60
2022/06/01 02:22:29;;;;;;;36.10;12.40;;;11.00;99.90;;;;;;5043751;28;20470;-60
2022/06/01 02:24:55;;;;;;;39.43;14.07;;;11.00;99.90;;;;;;5046468;28;20492;-59
2022/06/01 02:27:22;;;;;;;49.97;13.67;;;11.00;99.90;;;;;;5048955;28;20434;-60
2022/06/01 02:29:56;;;;;;;33.73;12.93;;;11.00;99.90;;;;;;5049044;28;20176;-60
2022/06/01 02:32:25;;;;;;;26.07;15.70;;;11.00;99.90;;;;;;5047659;28;20486;-60
2022/06/01 02:34:54;;;;;;;25.90;11.30;;;11.00;99.90;;;;;;5035967;28;20454;-59
2022/06/01 02:37:21;;;;;;;22.43;10.20;;;11.00;99.90;;;;;;5048633;28;20465;-62
2022/06/01 02:39:52;;;;;;;28.20;11.87;;;11.00;99.90;;;;;;5043203;28;20508;-60
2022/06/01 02:42:30;;;;;;;21.63;10.77;;;11.00;99.90;;;;;;5039362;28;20433;-60
2022/06/01 02:45:00;;;;;;;25.87;10.93;;;11.00;99.90;;;;;;5048976;28;20462;-59
2022/06/01 02:47:31;;;;;;;22.10;10.90;;;11.00;99.90;;;;;;5039977;28;20509;-60
2022/06/01 02:49:58;;;;;;;24.80;9.60;;;11.00;99.90;;;;;;5044831;28;20911;-60
2022/06/01 02:52:23;;;;;;;17.27;9.30;;;11.00;99.90;;;;;;5050449;28;20465;-59
2022/06/01 02:54:49;;;;;;;14.60;8.47;;;11.00;99.90;;;;;;5053285;28;20457;-59
2022/06/01 02:57:15;;;;;;;22.70;9.83;;;11.00;99.90;;;;;;5049495;28;20192;-59
2022/06/01 02:59:41;;;;;;;19.50;9.33;;;10.90;99.90;;;;;;5030848;28;20195;-60
2022/06/01 03:02:09;;;;;;;29.57;8.70;;;10.90;99.90;;;;;;5046560;28;20206;-59
2022/06/01 03:04:39;;;;;;;14.20;7.90;;;10.90;99.90;;;;;;5058378;28;20453;-60
2022/06/01 03:07:05;;;;;;;14.00;8.23;;;10.90;99.90;;;;;;5071072;28;20917;-59
2022/06/01 03:09:31;;;;;;;17.13;8.93;;;10.90;99.90;;;;;;5065843;28;20436;-59
2022/06/01 03:11:57;;;;;;;16.47;9.53;;;10.80;99.90;;;;;;5046773;28;20230;-59
2022/06/01 03:14:23;;;;;;;13.27;8.40;;;10.80;99.90;;;;;;5048862;28;20441;-59
2022/06/01 03:16:49;;;;;;;16.80;8.53;;;10.80;99.90;;;;;;5041960;28;20410;-60
2022/06/01 03:19:15;;;;;;;11.60;8.17;;;10.80;99.90;;;;;;5044175;28;20175;-61
2022/06/01 03:21:41;;;;;;;14.00;7.87;;;10.80;99.90;;;;;;5060440;28;20577;-59
2022/06/01 03:24:08;;;;;;;32.93;8.53;;;10.80;99.90;;;;;;5055505;28;20207;-59
2022/06/01 03:26:34;;;;;;;14.13;9.20;;;10.80;99.90;;;;;;5055713;28;20174;-59
2022/06/01 03:29:00;;;;;;;11.27;7.93;;;10.80;99.90;;;;;;5049089;28;20464;-60
2022/06/01 03:31:26;;;;;;;17.30;8.40;;;10.80;99.90;;;;;;5044916;28;21113;-60
2022/06/01 03:33:51;;;;;;;31.33;8.67;;;10.80;99.90;;;;;;5048849;28;20199;-59
2022/06/01 03:36:17;;;;;;;22.53;9.47;;;10.80;99.90;;;;;;5046442;28;20190;-59
2022/06/01 03:38:43;;;;;;;26.23;8.90;;;10.80;99.90;;;;;;5048824;28;20552;-60
2022/06/01 03:41:08;;;;;;;13.97;8.83;;;10.80;99.90;;;;;;5052125;28;20180;-59
2022/06/01 03:45:55;;;;;;;76.70;10.17;;;10.80;99.90;;;;;;5056640;28;20199;-59
2022/06/01 03:46:19;;;;;;;20.20;9.30;;;10.70;99.90;;;;;;5049664;28;20181;-59
2022/06/01 03:48:45;;;;;;;19.20;8.93;;;10.70;99.90;;;;;;5042693;28;20433;-59
2022/06/01 03:51:11;;;;;;;19.17;9.03;;;10.60;99.90;;;;;;5047672;28;20630;-59
2022/06/01 03:53:36;;;;;;;22.87;8.43;;;10.60;99.90;;;;;;5042029;28;20676;-59
2022/06/01 03:56:02;;;;;;;18.53;9.33;;;10.60;99.90;;;;;;5030510;28;20225;-53
2022/06/01 03:58:29;;;;;;;27.33;9.83;;;10.60;99.90;;;;;;5037034;28;20179;-54
2022/06/01 04:00:55;;;;;;;33.03;9.93;;;10.60;99.90;;;;;;5042281;28;20514;-56
2022/06/01 04:03:21;;;;;;;22.77;8.90;;;10.60;99.90;;;;;;5026774;28;20458;-54
2022/06/01 04:05:46;;;;;;;20.33;8.53;;;10.60;99.90;;;;;;5033983;28;20539;-56
2022/06/01 04:08:12;;;;;;;38.23;8.77;;;10.60;99.90;;;;;;5037979;28;20934;-61
2022/06/01 04:10:42;;;;;;;33.67;9.07;;;10.60;99.90;;;;;;5038429;28;20179;-60
2022/06/01 04:13:07;;;;;;;18.07;8.30;;;10.50;99.90;;;;;;5040910;28;20492;-60
2022/06/01 04:15:33;;;;;;;40.23;8.80;;;10.50;99.90;;;;;;5037099;28;20840;-59
2022/06/01 04:17:58;;;;;;;23.87;8.33;;;10.50;99.90;;;;;;5041569;28;20180;-60
2022/06/01 04:20:24;;;;;;;68.70;9.90;;;10.50;99.90;;;;;;5037080;28;20266;-61
2022/06/01 04:22:54;;;;;;;11.77;8.50;;;10.50;99.90;;;;;;5032361;28;20648;-61
2022/06/01 04:25:21;;;;;;;18.03;9.60;;;10.50;99.90;;;;;;5035736;28;20747;-61
2022/06/01 04:27:47;;;;;;;67.70;9.87;;;10.50;99.90;;;;;;5039011;28;20938;-60
2022/06/01 04:30:16;;;;;;;39.97;9.90;;;10.50;99.90;;;;;;5037298;28;20436;-59
2022/06/01 04:32:44;;;;;;;16.80;8.93;;;10.50;99.90;;;;;;5037115;28;20821;-59
2022/06/01 04:35:10;;;;;;;17.00;9.63;;;10.60;99.90;;;;;;5040854;28;20541;-61
2022/06/01 04:37:36;;;;;;;13.77;9.47;;;10.60;99.90;;;;;;5037581;28;20422;-60
2022/06/01 04:40:02;;;;;;;14.43;8.87;;;10.60;99.90;;;;;;5030417;28;20455;-61
2022/06/01 04:42:28;;;;;;;15.67;8.80;;;10.70;99.90;;;;;;5036203;28;20431;-61
2022/06/01 04:44:54;;;;;;;11.50;8.27;;;10.70;99.90;;;;;;5036870;28;20460;-60
2022/06/01 04:47:19;;;;;;;13.60;9.27;;;10.70;99.90;;;;;;5039374;28;20198;-60
2022/06/01 04:49:46;;;;;;;19.37;8.50;;;10.80;99.90;;;;;;5035807;28;20175;-60
2022/06/01 04:52:15;;;;;;;12.63;9.63;;;10.80;99.90;;;;;;5041408;28;20223;-59
2022/06/01 04:54:41;;;;;;;17.33;9.00;;;10.90;99.90;;;;;;5040543;28;20461;-60
2022/06/01 04:57:07;;;;;;;15.67;8.97;;;10.90;99.90;;;;;;5036437;28;20434;-61
2022/06/01 04:59:33;;;;;;;14.50;9.50;;;10.90;99.90;;;;;;5038614;28;21130;-60
2022/06/01 05:01:59;;;;;;;12.20;8.77;;;10.90;99.90;;;;;;5030194;28;20499;-62
2022/06/01 05:04:28;;;;;;;13.40;9.23;;;10.90;99.90;;;;;;5032683;28;20495;-61
2022/06/01 05:06:57;;;;;;;22.50;10.80;;;10.90;99.90;;;;;;5034509;28;20440;-61
2022/06/01 05:09:22;;;;;;;24.77;12.33;;;10.90;99.90;;;;;;5037295;28;20471;-61
2022/06/01 05:11:48;;;;;;;19.23;11.27;;;11.00;99.90;;;;;;5041258;28;20475;-60
2022/06/01 05:14:14;;;;;;;18.57;11.20;;;11.00;99.90;;;;;;5038787;28;20376;-61
2022/06/01 05:16:40;;;;;;;21.83;11.37;;;11.10;99.90;;;;;;5045491;28;20180;-60
2022/06/01 05:19:05;;;;;;;25.13;10.23;;;11.00;99.90;;;;;;5042195;28;20175;-61
2022/06/01 05:21:31;;;;;;;24.27;11.43;;;11.00;99.90;;;;;;5054155;28;20182;-60
2022/06/01 05:23:57;;;;;;;28.23;11.93;;;11.10;99.90;;;;;;5037590;28;20884;-61
2022/06/01 05:26:23;;;;;;;20.73;10.90;;;11.10;99.90;;;;;;5046247;28;20430;-60
2022/06/01 05:28:49;;;;;;;27.10;12.73;;;11.20;99.90;;;;;;5045456;28;22005;-60
2022/06/01 05:31:14;;;;;;;28.33;11.80;;;11.20;99.90;;;;;;5038512;28;20207;-60
2022/06/01 05:33:43;;;;;;;25.43;11.87;;;11.20;99.90;;;;;;5045298;28;20282;-61
2022/06/01 05:36:09;;;;;;;23.73;12.07;;;11.20;99.90;;;;;;5046838;28;20170;-61
2022/06/01 05:38:35;;;;;;;22.40;13.00;;;11.30;99.90;;;;;;5045165;28;20838;-61
2022/06/01 05:41:02;;;;;;;23.47;12.87;;;11.30;99.90;;;;;;5041578;28;20962;-61
2022/06/01 05:43:28;;;;;;;24.80;12.97;;;11.40;99.90;;;;;;5043008;28;20731;-60
2022/06/01 05:45:53;;;;;;;21.47;11.87;;;11.40;99.90;;;;;;5047918;28;20424;-61
2022/06/01 05:48:21;;;;;;;20.00;12.83;;;11.50;99.90;;;;;;5044357;28;21079;-59
2022/06/01 05:50:46;;;;;;;22.87;14.90;;;11.50;99.90;;;;;;5053447;28;20171;-59
2022/06/01 05:53:12;;;;;;;22.73;12.93;;;11.60;99.90;;;;;;5049611;28;20499;-60
2022/06/01 05:55:39;;;;;;;19.67;13.40;;;11.60;99.90;;;;;;5033966;28;20164;-61
2022/06/01 05:58:19;;;;;;;24.20;13.47;;;11.60;99.90;;;;;;5029033;28;20418;-61
2022/06/01 06:00:47;;;;;;;21.80;13.27;;;11.80;99.90;;;;;;5035506;28;20457;-60
2022/06/01 06:03:14;;;;;;;21.83;13.43;;;11.80;99.90;;;;;;5046273;28;20441;-60
2022/06/01 06:08:24;;;;;;;25.07;14.30;;;12.00;99.90;;;;;;5037060;28;20416;-60
2022/06/01 06:10:50;;;;;;;24.05;13.55;;;12.10;99.90;;;;;;5046481;28;20434;-61
2022/06/01 06:13:16;;;;;;;23.00;14.40;;;12.20;99.90;;;;;;5039685;28;20488;-60
2022/06/01 06:15:42;;;;;;;22.63;13.97;;;12.30;99.90;;;;;;5041621;28;20180;-61
2022/06/01 06:18:14;;;;;;;23.07;15.33;;;12.40;99.90;;;;;;5046565;28;20433;-60
2022/06/01 06:20:43;;;;;;;30.27;15.17;;;12.50;99.90;;;;;;5042328;28;20461;-61
2022/06/01 06:23:10;;;;;;;32.13;16.93;;;12.60;99.90;;;;;;5049393;28;20441;-61
2022/06/01 06:25:36;;;;;;;30.87;17.30;;;12.70;99.90;;;;;;5033414;28;20419;-62
2022/06/01 06:28:01;;;;;;;50.17;22.43;;;12.70;99.90;;;;;;5048851;28;20433;-60
2022/06/01 06:30:27;;;;;;;42.83;21.10;;;12.80;99.90;;;;;;5032221;28;20179;-61
2022/06/01 06:32:53;;;;;;;48.87;22.97;;;12.80;99.90;;;;;;5032028;28;20258;-62
2022/06/01 06:35:18;;;;;;;57.43;23.40;;;12.80;99.90;;;;;;5043119;28;20167;-63
2022/06/01 06:37:44;;;;;;;43.93;22.20;;;12.70;99.90;;;;;;5048101;28;20215;-61
2022/06/01 06:40:11;;;;;;;38.23;20.17;;;12.70;99.90;;;;;;5041363;28;20183;-61
2022/06/01 06:42:37;;;;;;;37.30;19.77;;;12.80;99.90;;;;;;5050819;28;20191;-58
2022/06/01 06:45:04;;;;;;;44.57;22.67;;;12.80;99.90;;;;;;5051363;28;20822;-60
2022/06/01 06:47:32;;;;;;;42.70;21.13;;;12.90;99.90;;;;;;5048948;28;20438;-62
2022/06/01 06:49:58;;;;;;;43.17;23.07;;;13.00;99.90;;;;;;5051370;28;20779;-62
2022/06/01 06:52:23;;;;;;;37.70;20.40;;;13.20;99.90;;;;;;5044248;28;20486;-62
2022/06/01 06:54:49;;;;;;;38.83;20.07;;;13.30;99.90;;;;;;5043475;28;20686;-61
2022/06/01 06:57:15;;;;;;;34.00;18.97;;;13.40;99.90;;;;;;5044321;28;20201;-62
2022/06/01 06:59:41;;;;;;;22.57;15.10;;;13.60;99.90;;;;;;5045100;28;20186;-63
2022/06/01 07:02:06;;;;;;;24.17;15.50;;;13.60;99.90;;;;;;5043510;28;20430;-61
2022/06/01 07:04:32;;;;;;;34.50;14.80;;;13.70;99.90;;;;;;5055539;28;20199;-61
2022/06/01 07:06:58;;;;;;;33.20;16.37;;;13.80;99.90;;;;;;5054596;28;20180;-61
2022/06/01 07:09:24;;;;;;;31.60;17.90;;;13.90;99.90;;;;;;5043945;28;20503;-61
2022/06/01 07:11:49;;;;;;;28.63;15.67;;;14.00;99.90;;;;;;5036415;28;20250;-61
2022/06/01 07:14:15;;;;;;;27.77;15.00;;;14.10;99.90;;;;;;5041840;28;21638;-55
2022/06/01 07:16:41;;;;;;;23.80;13.70;;;14.20;99.90;;;;;;5040912;28;20184;-58
2022/06/01 07:19:08;;;;;;;24.40;15.33;;;14.30;99.90;;;;;;5037621;28;20171;-57
2022/06/01 07:21:37;;;;;;;25.93;14.73;;;14.40;99.90;;;;;;5040943;28;20175;-58
2022/06/01 07:24:04;;;;;;;25.53;13.40;;;14.50;99.90;;;;;;5042282;28;20460;-57
2022/06/01 07:26:33;;;;;;;19.90;13.10;;;14.70;99.90;;;;;;5041978;28;20438;-61
2022/06/01 07:28:59;;;;;;;17.27;12.60;;;14.90;99.90;;;;;;5038875;28;20473;-60
2022/06/01 07:31:25;;;;;;;21.50;12.63;;;15.10;99.90;;;;;;5047768;28;20485;-61
2022/06/01 07:33:51;;;;;;;19.13;11.43;;;15.20;99.90;;;;;;5036212;28;20201;-61
2022/06/01 07:36:17;;;;;;;7.63;6.20;;;15.40;99.90;;;;;;5035519;28;20527;-60
2022/06/01 07:44:19;;;;;;;6.77;5.30;;;15.60;99.90;;;;;;5035431;28;22785;-61
2022/06/01 07:46:46;;;;;;;6.83;5.13;;;15.80;99.90;;;;;;5037798;28;20468;-61
2022/06/01 07:49:12;;;;;;;8.90;5.57;;;16.00;99.90;;;;;;5038329;28;20433;-60
2022/06/01 07:51:38;;;;;;;6.93;4.47;;;16.10;99.90;;;;;;5036128;28;20458;-61
2022/06/01 07:54:05;;;;;;;8.17;4.50;;;16.30;99.90;;;;;;5032275;28;20190;-57
2022/06/01 07:56:31;;;;;;;9.10;5.27;;;16.40;99.90;;;;;;5031788;28;20461;-60
2022/06/01 07:58:57;;;;;;;11.43;5.27;;;16.50;99.90;;;;;;5037016;28;20524;-60
2022/06/01 08:01:25;;;;;;;6.07;4.87;;;16.60;99.90;;;;;;5034684;28;20529;-62
2022/06/01 08:03:58;;;;;;;10.40;4.70;;;16.70;99.90;;;;;;5034333;28;20207;-61
2022/06/01 08:06:25;;;;;;;8.30;4.70;;;16.70;99.90;;;;;;5045305;28;20794;-59
2022/06/01 08:08:51;;;;;;;4.97;4.20;;;16.80;99.90;;;;;;5039814;28;20512;-61
2022/06/01 08:11:17;;;;;;;7.40;4.80;;;16.80;99.90;;;;;;5035600;28;20503;-59
2022/06/01 08:13:42;;;;;;;4.73;4.20;;;16.80;99.90;;;;;;5036881;28;20818;-59
2022/06/01 08:16:08;;;;;;;8.23;4.70;;;16.90;99.90;;;;;;5033741;28;20735;-60
2022/06/01 08:18:34;;;;;;;6.93;5.00;;;17.00;99.90;;;;;;5029633;28;20234;-61
2022/06/01 08:21:00;;;;;;;7.83;5.00;;;17.10;99.90;;;;;;5037079;28;20178;-60
2022/06/01 08:23:28;;;;;;;8.37;5.40;;;17.20;99.90;;;;;;5036798;28;20198;-60
2022/06/01 08:25:54;;;;;;;7.60;5.20;;;17.30;99.90;;;;;;5037877;28;20171;-60
2022/06/01 08:28:20;;;;;;;5.47;4.63;;;17.40;99.50;;;;;;5035993;28;20553;-59
2022/06/01 08:30:46;;;;;;;4.87;4.30;;;17.40;98.40;;;;;;5034743;28;20433;-60
2022/06/01 08:33:12;;;;;;;8.30;4.60;;;17.50;99.70;;;;;;5038372;28;20468;-60
2022/06/01 08:35:41;;;;;;;6.13;4.57;;;17.60;99.90;;;;;;5037609;28;20429;-60
2022/06/01 08:38:07;;;;;;;4.97;4.27;;;17.70;98.90;;;;;;5037607;28;20425;-60
2022/06/01 08:40:51;;;;;;;7.53;4.30;;;17.70;98.60;;;;;;5037248;28;20822;-60
2022/06/01 08:43:19;;;;;;;5.73;4.60;;;17.80;98.20;;;;;;5038506;28;20508;-60
2022/06/01 08:45:50;;;;;;;10.20;5.37;;;17.70;97.00;;;;;;5040668;28;20421;-60
2022/06/01 08:48:29;;;;;;;6.73;4.47;;;17.70;97.10;;;;;;5047239;28;21187;-60
2022/06/01 08:50:55;;;;;;;7.90;4.43;;;17.70;97.60;;;;;;5041203;28;20440;-61
2022/06/01 08:53:22;;;;;;;9.10;4.67;;;17.60;97.30;;;;;;5029907;28;20453;-60
2022/06/01 08:55:52;;;;;;;5.60;4.60;;;17.50;97.90;;;;;;5044444;28;20505;-61
2022/06/01 08:58:39;;;;;;;5.67;4.27;;;17.50;98.90;;;;;;5054186;28;20455;-59
2022/06/01 09:01:24;;;;;;;5.70;3.90;;;17.50;99.00;;;;;;5031947;28;20427;-60
2022/06/01 09:04:00;;;;;;;4.70;4.30;;;17.50;99.20;;;;;;5030819;28;20866;-60
2022/06/01 09:06:38;;;;;;;9.53;4.87;;;17.50;97.00;;;;;;5030670;28;21001;-60
2022/06/01 09:09:13;;;;;;;6.40;4.30;;;17.40;98.80;;;;;;5047295;28;21020;-59
2022/06/01 09:11:39;;;;;;;4.40;4.00;;;17.50;99.70;;;;;;5041857;28;20460;-60
2022/06/01 09:14:14;;;;;;;7.83;5.23;;;17.60;95.90;;;;;;5044758;28;20434;-60
2022/06/01 09:16:55;;;;;;;6.13;4.37;;;17.60;97.50;;;;;;5041334;28;20437;-61
2022/06/01 09:22:37;;;;;;;6.80;4.50;;;17.70;97.80;;;;;;5028865;28;20468;-61
2022/06/01 09:22:38;;;;;;;6.70;4.50;;;17.70;98.40;;;;;;5043454;28;21004;-61
2022/06/01 09:25:08;;;;;;;7.53;5.33;;;17.80;99.80;;;;;;5042822;28;20433;-60
2022/06/01 09:27:40;;;;;;;8.13;4.20;;;18.10;99.90;;;;;;5036629;28;20468;-61
2022/06/01 09:30:36;;;;;;;12.43;4.70;;;18.40;99.90;;;;;;5035905;28;20426;-60
2022/06/01 09:33:05;;;;;;;4.90;4.40;;;18.50;95.70;;;;;;5037145;28;20457;-60
2022/06/01 09:35:37;;;;;;;7.73;4.33;;;18.60;94.40;;;;;;5047285;28;20691;-60
2022/06/01 09:38:18;;;;;;;4.60;4.20;;;18.70;94.40;;;;;;5045002;28;20429;-59
2022/06/01 09:40:44;;;;;;;4.17;3.77;;;18.90;92.70;;;;;;5050373;28;20406;-60
2022/06/01 09:43:22;;;;;;;5.90;3.80;;;19.00;91.20;;;;;;5050836;28;20804;-60
2022/06/01 09:45:53;;;;;;;7.83;3.87;;;18.80;90.90;;;;;;5041551;28;20558;-60
2022/06/01 09:48:36;;;;;;;4.30;3.90;;;18.70;92.10;;;;;;5049327;28;20433;-61
2022/06/01 09:51:08;;;;;;;6.50;3.83;;;18.50;92.00;;;;;;5035882;28;20448;-60
2022/06/01 09:53:45;;;;;;;3.73;3.33;;;18.30;92.60;;;;;;5051543;28;20533;-59
2022/06/01 09:56:11;;;;;;;3.70;3.30;;;18.30;94.20;;;;;;5042767;28;21073;-60
2022/06/01 10:07:24;;;;;;;5.17;3.57;;;18.40;80.60;;;;;;5057211;28;20495;-61
2022/06/01 10:09:53;;;;;;;3.20;3.00;;;18.50;82.60;;;;;;5042686;28;20537;-61
2022/06/01 10:12:42;;;;;;;3.93;3.10;;;18.70;83.30;;;;;;5039097;28;20458;-60
2022/06/01 10:15:17;;;;;;;4.63;3.20;;;18.80;75.20;;;;;;5045493;28;20438;-59
2022/06/01 10:17:47;;;;;;;2.97;2.73;;;18.80;70.30;;;;;;5039583;28;20426;-59
2022/06/01 10:20:50;;;;;;;7.70;2.43;;;18.80;62.30;;;;;;5050897;28;20439;-60
2022/06/01 10:23:21;;;;;;;2.90;2.43;;;18.90;60.60;;;;;;5041539;28;20533;-59
2022/06/01 10:26:09;;;;;;;3.83;2.80;;;18.90;59.30;;;;;;5051465;28;20446;-60
2022/06/01 10:28:41;;;;;;;3.00;2.40;;;18.90;57.50;;;;;;5044538;28;20569;-59
2022/06/01 10:31:28;;;;;;;2.87;2.67;;;18.80;57.20;;;;;;5044834;28;20440;-59
2022/06/01 10:34:13;;;;;;;4.50;2.30;;;18.70;57.20;;;;;;5043542;28;20960;-60
2022/06/01 10:36:51;;;;;;;5.30;2.90;;;18.60;57.00;;;;;;5048887;28;20428;-60
2022/06/01 10:39:28;;;;;;;3.47;2.53;;;18.60;57.20;;;;;;5046093;28;20520;-62
2022/06/01 10:41:53;;;;;;;3.30;3.00;;;18.50;57.70;;;;;;5042452;28;20467;-60
2022/06/01 10:44:41;;;;;;;3.50;3.20;;;18.50;58.50;;;;;;5043240;28;20453;-61
2022/06/01 10:47:28;;;;;;;4.83;2.53;;;18.50;58.80;;;;;;5043667;28;20183;-60
2022/06/01 10:50:03;;;;;;;3.10;2.80;;;18.50;58.60;;;;;;5041046;28;20833;-61
2022/06/01 10:52:43;;;;;;;4.33;2.70;;;18.50;58.90;;;;;;5042482;28;20490;-60
2022/06/01 10:55:31;;;;;;;4.00;3.10;;;18.60;59.00;;;;;;5041882;28;20995;-61
2022/06/01 10:57:59;;;;;;;3.53;2.90;;;18.60;58.20;;;;;;5042907;28;20516;-60
2022/06/01 11:01:02;;;;;;;3.67;2.90;;;18.60;57.40;;;;;;5042598;28;20437;-61
2022/06/01 11:04:15;;;;;;;4.10;2.70;;;18.70;57.30;;;;;;5041970;28;20449;-60
2022/06/01 11:07:00;;;;;;;5.13;3.03;;;18.70;57.80;;;;;;5036272;28;20536;-60
2022/06/01 11:09:56;;;;;;;2.97;2.70;;;18.80;56.70;;;;;;5042196;28;20511;-61
2022/06/01 11:12:33;;;;;;;5.93;2.40;;;18.70;56.50;;;;;;5034849;28;20466;-60
2022/06/01 11:15:08;;;;;;;6.20;3.10;;;18.70;56.40;;;;;;5039205;28;20468;-61
2022/06/01 11:18:01;;;;;;;3.30;3.00;;;18.70;57.30;;;;;;5053139;28;20432;-55
2022/06/01 11:20:36;;;;;;;3.50;3.00;;;18.60;56.90;;;;;;5036552;28;20520;-57
2022/06/01 11:23:08;;;;;;;2.63;2.43;;;18.60;58.20;;;;;;5041221;28;20449;-54
2022/06/01 11:25:46;;;;;;;6.43;3.17;;;18.50;59.60;;;;;;5037077;28;20434;-59
2022/06/01 11:28:33;;;;;;;2.90;2.70;;;18.50;58.70;;;;;;5043540;28;20433;-60
2022/06/01 11:30:59;;;;;;;3.13;2.43;;;18.40;58.00;;;;;;5045699;28;20432;-60
2022/06/01 11:33:34;;;;;;;4.40;2.60;;;18.40;58.20;;;;;;5043561;28;20462;-60
2022/06/01 11:36:23;;;;;;;3.17;2.60;;;18.30;56.90;;;;;;5047491;28;20659;-60
2022/06/01 11:38:56;;;;;;;2.40;2.20;;;18.30;58.40;;;;;;5045260;28;20979;-60
2022/06/01 11:41:34;;;;;;;2.63;1.90;;;18.40;55.60;;;;;;5043978;28;20442;-61
2022/06/01 11:44:09;;;;;;;4.70;2.03;;;18.40;51.70;;;;;;5041728;28;20490;-61
2022/06/01 11:46:53;;;;;;;4.23;2.13;;;18.40;49.50;;;;;;5040045;28;20433;-60
2022/06/01 11:49:36;;;;;;;5.77;1.83;;;18.40;49.90;;;;;;5041616;28;20518;-60
2022/06/01 11:52:23;;;;;;;2.40;1.93;;;18.30;49.20;;;;;;5044568;28;20456;-58
2022/06/01 11:55:19;;;;;;;5.70;2.20;;;18.30;49.10;;;;;;5035030;28;20450;-60
2022/06/01 11:57:49;;;;;;;2.93;2.20;;;18.20;48.70;;;;;;5039168;28;20442;-61
2022/06/01 12:00:19;;;;;;;2.87;2.20;;;18.10;48.60;;;;;;5035647;28;20423;-59
2022/06/01 12:02:50;;;;;;;4.00;2.23;;;18.10;48.60;;;;;;5040520;28;20453;-60
2022/06/01 12:05:32;;;;;;;2.30;2.03;;;18.10;48.60;;;;;;5042034;28;20872;-59
2022/06/01 12:08:18;;;;;;;5.00;2.20;;;18.00;48.60;;;;;;5034179;28;20457;-61
2022/06/01 12:11:03;;;;;;;2.10;1.90;;;18.00;48.60;;;;;;5037269;28;20549;-59
2022/06/01 12:13:51;;;;;;;2.57;2.10;;;18.10;49.50;;;;;;5036143;28;20477;-59
2022/06/01 12:16:22;;;;;;;2.33;2.13;;;18.10;49.10;;;;;;5037398;28;20422;-58
2022/06/01 12:19:09;;;;;;;1.83;1.63;;;18.10;47.30;;;;;;5037180;28;20422;-59
2022/06/01 12:21:44;;;;;;;2.13;1.97;;;18.10;47.30;;;;;;5029201;28;20493;-61
2022/06/01 12:30:05;;;;;;;1.60;1.50;;;18.20;46.00;;;;;;5047829;28;20424;-59
2022/06/01 12:32:51;;;;;;;2.63;1.80;;;18.10;45.30;;;;;;5045612;28;21103;-58
2022/06/01 12:35:19;;;;;;;6.53;2.00;;;18.10;45.10;;;;;;5039144;28;20514;-58
2022/06/01 12:37:53;;;;;;;2.63;1.53;;;18.10;46.10;;;;;;5032783;28;20449;-60
2022/06/01 12:40:21;;;;;;;3.10;1.80;;;18.20;46.60;;;;;;5032166;28;20426;-60
2022/06/01 12:42:53;;;;;;;1.90;1.70;;;18.20;45.70;;;;;;5033956;28;20495;-60
2022/06/01 12:45:21;;;;;;;4.07;1.60;;;18.20;45.20;;;;;;5037631;28;20520;-61
2022/06/01 12:47:58;;;;;;;2.50;1.43;;;18.30;45.30;;;;;;5038011;28;20434;-60
2022/06/01 12:50:27;;;;;;;2.17;1.50;;;18.30;46.10;;;;;;5037136;28;20423;-60
2022/06/01 12:53:40;;;;;;;2.40;1.70;;;18.40;45.20;;;;;;5036467;28;20972;-61
2022/06/01 12:56:13;;;;;;;5.40;1.63;;;18.50;45.10;;;;;;4995316;28;20506;-60
2022/06/01 12:58:40;;;;;;;2.60;1.47;;;18.60;46.00;;;;;;5028790;28;20434;-60
2022/06/01 13:01:06;;;;;;;1.33;1.23;;;18.60;45.80;;;;;;5033740;28;20479;-60
2022/06/01 13:03:33;;;;;;;2.47;1.70;;;18.50;45.50;;;;;;5034852;28;20499;-60
2022/06/01 13:06:07;;;;;;;2.97;1.77;;;18.50;45.70;;;;;;5038904;28;20418;-60
2022/06/01 13:08:39;;;;;;;1.50;1.40;;;18.40;45.40;;;;;;5038107;28;20430;-60
2022/06/01 13:11:23;;;;;;;1.43;1.10;;;18.30;44.10;;;;;;5039322;28;20433;-60
2022/06/01 13:13:48;;;;;;;1.30;1.20;;;18.20;43.70;;;;;;5041375;28;20812;-60
2022/06/01 13:16:14;;;;;;;3.83;1.60;;;18.20;43.60;;;;;;5040020;28;20487;-61
2022/06/01 13:18:43;;;;;;;3.13;1.30;;;18.20;43.70;;;;;;5045040;28;20547;-61
2022/06/01 13:21:09;;;;;;;1.47;1.37;;;18.20;44.30;;;;;;5039641;28;20425;-61
2022/06/01 13:23:50;;;;;;;2.37;1.63;;;18.20;44.80;;;;;;5036818;28;20684;-61